Time;durP1;ratioP1;P1;durP2;ratioP2;P2;SDS_P1;SDS_P2;PMS_P1;PMS_P2;Temp;Humidity;BMP_temperature;BMP_pressure;BME280_temperature;BME280_humidity;BME280_pressure;Samples;Min_cycle;Max_cycle;Signal;HPM_P1;HPM_P2
2022/02/24 00:00:15;;;;;;;4.67;1.17;;;9.00;99.90;;;;;;5012345;28;20963;-74
2022/02/24 00:02:42;;;;;;;6.70;1.50;;;9.10;99.90;;;;;;5013264;28;20201;-74
2022/02/24 00:05:09;;;;;;;5.10;1.37;;;9.10;99.90;;;;;;5013051;28;20573;-75
2022/02/24 00:07:36;;;;;;;4.37;1.40;;;9.20;99.90;;;;;;5013108;28;20314;-75
2022/02/24 00:10:05;;;;;;;5.87;1.40;;;9.30;99.90;;;;;;5013135;28;20591;-74
2022/02/24 00:12:32;;;;;;;8.13;1.43;;;9.20;99.90;;;;;;5012975;28;20205;-74
2022/02/24 00:15:00;;;;;;;6.27;1.80;;;9.20;99.90;;;;;;5012730;28;20656;-77
2022/02/24 00:17:27;;;;;;;6.07;1.20;;;9.20;99.90;;;;;;5011709;28;20224;-75
2022/02/24 00:19:54;;;;;;;7.13;1.20;;;9.20;99.90;;;;;;5008203;28;20232;-75
2022/02/24 00:22:21;;;;;;;7.67;1.47;;;9.10;99.90;;;;;;5011439;28;20259;-77
2022/02/24 00:24:49;;;;;;;7.77;1.47;;;9.10;99.90;;;;;;5010976;28;20288;-74
2022/02/24 00:27:15;;;;;;;4.93;1.40;;;9.10;99.90;;;;;;5010951;28;20236;-74
2022/02/24 00:29:42;;;;;;;5.53;1.43;;;9.20;99.90;;;;;;5011543;28;20217;-75
2022/02/24 00:32:10;;;;;;;4.53;1.40;;;9.20;99.90;;;;;;5011627;28;20201;-75
2022/02/24 00:34:37;;;;;;;5.50;1.37;;;9.20;99.90;;;;;;5011932;28;20206;-75
2022/02/24 00:37:04;;;;;;;7.00;1.47;;;9.20;99.90;;;;;;4998631;28;20650;-75
2022/02/24 00:39:31;;;;;;;3.57;1.43;;;9.20;99.90;;;;;;4992839;28;20237;-74
2022/02/24 00:41:58;;;;;;;5.97;1.33;;;9.10;99.90;;;;;;4993004;28;20210;-73
2022/02/24 00:44:25;;;;;;;3.47;1.37;;;9.10;99.90;;;;;;4993452;28;20641;-74
2022/02/24 00:46:52;;;;;;;4.83;1.00;;;9.10;99.90;;;;;;4993764;28;20255;-74
2022/02/24 00:49:22;;;;;;;5.57;1.03;;;9.20;99.90;;;;;;4993609;28;20233;-74
2022/02/24 00:51:49;;;;;;;3.67;1.13;;;9.20;99.90;;;;;;4993350;28;20210;-74
2022/02/24 00:54:16;;;;;;;4.37;1.10;;;9.20;99.90;;;;;;4996581;28;20206;-75
2022/02/24 00:56:43;;;;;;;4.37;1.30;;;9.10;99.90;;;;;;4992972;28;20202;-75
2022/02/24 00:59:10;;;;;;;4.80;1.00;;;9.00;99.90;;;;;;4992857;28;20241;-77
2022/02/24 01:01:37;;;;;;;3.13;0.83;;;9.00;99.90;;;;;;4996400;28;20209;-75
2022/02/24 01:04:04;;;;;;;1.17;0.60;;;9.00;99.90;;;;;;4997305;28;20215;-75
2022/02/24 01:06:32;;;;;;;4.80;0.97;;;9.10;99.90;;;;;;4997174;28;20244;-75
2022/02/24 01:08:59;;;;;;;5.03;1.00;;;9.10;99.90;;;;;;4996780;28;20206;-74
2022/02/24 01:11:26;;;;;;;2.57;0.73;;;9.10;99.90;;;;;;5000208;28;20203;-75
2022/02/24 01:13:52;;;;;;;6.33;0.93;;;9.10;99.90;;;;;;4997139;28;20206;-74
2022/02/24 01:16:19;;;;;;;1.97;0.90;;;9.10;99.90;;;;;;4997552;28;20210;-75
2022/02/24 01:18:46;;;;;;;7.00;0.77;;;9.20;99.90;;;;;;4999107;28;20203;-75
2022/02/24 01:21:13;;;;;;;6.80;0.93;;;9.00;99.90;;;;;;4996764;28;20210;-75
2022/02/24 01:23:41;;;;;;;2.60;0.77;;;9.00;99.90;;;;;;5000138;28;20199;-75
2022/02/24 01:26:09;;;;;;;3.33;0.80;;;8.90;99.90;;;;;;4996526;28;20230;-75
2022/02/24 01:28:36;;;;;;;3.37;1.03;;;8.90;99.90;;;;;;4996762;28;20203;-74
2022/02/24 01:31:03;;;;;;;2.70;0.80;;;9.00;99.90;;;;;;4996661;28;20227;-74
2022/02/24 01:33:29;;;;;;;4.20;1.00;;;8.90;99.90;;;;;;4997132;28;20221;-74
2022/02/24 01:35:56;;;;;;;3.87;1.10;;;8.90;99.90;;;;;;4996477;28;20218;-75
2022/02/24 01:38:23;;;;;;;6.43;1.00;;;9.00;99.90;;;;;;4996237;28;20210;-75
2022/02/24 01:40:51;;;;;;;4.20;1.17;;;9.00;99.90;;;;;;4999634;28;20226;-74
2022/02/24 01:43:18;;;;;;;3.83;1.20;;;9.10;99.90;;;;;;4996604;28;20301;-75
2022/02/24 01:45:45;;;;;;;3.30;0.90;;;9.00;99.90;;;;;;5005847;28;20198;-75
2022/02/24 01:48:12;;;;;;;4.03;0.90;;;9.00;99.90;;;;;;5015858;28;20245;-74
2022/02/24 01:50:39;;;;;;;5.80;1.00;;;9.00;99.90;;;;;;5015494;28;20234;-74
2022/02/24 01:53:07;;;;;;;4.73;0.80;;;9.00;99.90;;;;;;5016244;28;20300;-74
2022/02/24 01:55:34;;;;;;;3.33;0.70;;;9.10;99.90;;;;;;5015626;28;20205;-75
2022/02/24 01:58:03;;;;;;;3.83;0.80;;;9.10;99.90;;;;;;5004002;28;20203;-75
2022/02/24 02:00:30;;;;;;;5.43;0.73;;;9.00;99.90;;;;;;4995881;28;20277;-75
2022/02/24 02:02:57;;;;;;;3.70;1.00;;;8.90;99.90;;;;;;4995630;28;20210;-75
2022/02/24 02:05:24;;;;;;;4.37;1.00;;;8.90;99.90;;;;;;4996115;28;20562;-75
2022/02/24 02:07:51;;;;;;;5.13;0.93;;;8.90;99.90;;;;;;4996140;28;20238;-74
2022/02/24 02:10:17;;;;;;;3.33;0.73;;;8.90;99.90;;;;;;4996126;28;20232;-74
2022/02/24 02:12:49;;;;;;;4.43;0.90;;;8.90;99.90;;;;;;4995160;28;20207;-74
2022/02/24 02:15:18;;;;;;;1.83;0.60;;;8.80;99.90;;;;;;5010880;28;20206;-75
2022/02/24 02:17:46;;;;;;;3.60;0.83;;;8.80;99.90;;;;;;5014960;28;20261;-74
2022/02/24 02:20:14;;;;;;;6.93;0.90;;;8.90;99.90;;;;;;5015757;28;20229;-74
2022/02/24 02:22:43;;;;;;;2.50;0.97;;;8.80;99.90;;;;;;5007378;28;20206;-74
2022/02/24 02:25:11;;;;;;;7.63;1.20;;;8.80;99.90;;;;;;4999521;28;20206;-75
2022/02/24 02:27:39;;;;;;;3.23;0.93;;;8.80;99.90;;;;;;4995661;28;20305;-75
2022/02/24 02:30:08;;;;;;;3.03;0.80;;;8.90;99.90;;;;;;4995729;28;20226;-74
2022/02/24 02:32:35;;;;;;;6.97;1.40;;;8.90;99.90;;;;;;4995503;28;20202;-75
2022/02/24 02:35:02;;;;;;;3.30;0.90;;;8.90;99.90;;;;;;4995542;28;20206;-74
2022/02/24 02:37:29;;;;;;;4.53;0.97;;;8.90;99.90;;;;;;4995224;28;20206;-74
2022/02/24 02:39:57;;;;;;;3.27;0.80;;;8.90;99.90;;;;;;4996679;28;20218;-75
2022/02/24 02:42:24;;;;;;;3.03;0.90;;;8.80;99.90;;;;;;4996277;28;20204;-75
2022/02/24 02:44:51;;;;;;;2.57;0.73;;;8.90;99.90;;;;;;4995148;28;20210;-74
2022/02/24 02:47:17;;;;;;;5.80;0.80;;;8.90;99.90;;;;;;4995411;28;20236;-74
2022/02/24 02:49:44;;;;;;;3.53;0.93;;;8.90;99.90;;;;;;4995659;28;20226;-74
2022/02/24 02:52:11;;;;;;;2.20;1.03;;;8.90;99.90;;;;;;4995166;28;20209;-74
2022/02/24 02:54:38;;;;;;;4.80;1.00;;;8.90;99.90;;;;;;4995128;28;20658;-75
2022/02/24 02:57:06;;;;;;;4.00;0.97;;;9.00;99.90;;;;;;4995257;28;20206;-75
2022/02/24 02:59:33;;;;;;;2.70;1.00;;;8.80;99.90;;;;;;4998073;28;20237;-74
2022/02/24 03:02:00;;;;;;;2.87;0.60;;;8.80;99.90;;;;;;4995004;28;20211;-74
2022/02/24 03:04:27;;;;;;;7.40;0.97;;;8.70;99.90;;;;;;4994848;28;20573;-74
2022/02/24 03:06:53;;;;;;;3.03;1.20;;;8.60;99.90;;;;;;4994720;28;20238;-75
2022/02/24 03:09:20;;;;;;;2.20;1.00;;;8.70;99.90;;;;;;4994645;28;20226;-74
2022/02/24 03:11:47;;;;;;;6.13;1.10;;;8.70;99.90;;;;;;4994420;28;20203;-75
2022/02/24 03:14:16;;;;;;;3.37;0.90;;;8.70;99.90;;;;;;4998064;28;20225;-74
2022/02/24 03:16:43;;;;;;;3.07;1.07;;;8.80;99.90;;;;;;5004541;28;20201;-75
2022/02/24 03:19:11;;;;;;;2.23;1.07;;;8.90;99.90;;;;;;5013841;28;20718;-75
2022/02/24 03:21:38;;;;;;;4.10;0.80;;;8.90;99.90;;;;;;4997159;28;20305;-75
2022/02/24 03:24:06;;;;;;;4.77;0.97;;;8.90;99.90;;;;;;4993916;28;20213;-75
2022/02/24 03:26:32;;;;;;;3.03;0.97;;;8.70;99.90;;;;;;4993926;28;20214;-75
2022/02/24 03:28:59;;;;;;;3.43;1.00;;;8.60;99.90;;;;;;4993798;28;20210;-74
2022/02/24 03:31:27;;;;;;;4.40;1.07;;;8.50;99.90;;;;;;4993954;28;20213;-74
2022/02/24 03:33:56;;;;;;;3.77;1.83;;;8.60;99.90;;;;;;4993871;28;20228;-75
2022/02/24 03:36:23;;;;;;;5.77;1.00;;;8.60;99.90;;;;;;4993778;28;20202;-75
2022/02/24 03:38:50;;;;;;;3.30;1.20;;;8.60;99.90;;;;;;4993485;28;20207;-74
2022/02/24 03:41:17;;;;;;;8.07;0.90;;;8.60;99.90;;;;;;4994033;28;20206;-74
2022/02/24 03:43:44;;;;;;;1.83;1.07;;;8.60;99.90;;;;;;4993829;28;20826;-75
2022/02/24 03:46:11;;;;;;;3.07;0.90;;;8.50;99.90;;;;;;4993603;28;20206;-75
2022/02/24 03:48:39;;;;;;;3.13;0.90;;;8.50;99.90;;;;;;5010956;28;20736;-75
2022/02/24 03:51:06;;;;;;;3.83;1.43;;;8.40;99.90;;;;;;5013253;28;20275;-75
2022/02/24 03:53:33;;;;;;;3.80;0.80;;;8.40;99.90;;;;;;5013350;28;20679;-75
2022/02/24 03:56:00;;;;;;;9.00;1.20;;;8.30;99.90;;;;;;5013726;28;20209;-74
2022/02/24 03:58:27;;;;;;;4.83;0.87;;;8.20;99.90;;;;;;5013499;28;20221;-75
2022/02/24 04:00:53;;;;;;;3.77;1.37;;;8.10;99.90;;;;;;5013049;28;20229;-77
2022/02/24 04:03:20;;;;;;;3.87;1.30;;;8.10;99.90;;;;;;5013338;28;20201;-75
2022/02/24 04:05:48;;;;;;;4.60;0.93;;;8.10;99.90;;;;;;4997877;28;20198;-76
2022/02/24 04:08:15;;;;;;;5.47;0.80;;;8.20;99.90;;;;;;4993451;28;20606;-75
2022/02/24 04:10:42;;;;;;;7.03;0.90;;;8.10;99.90;;;;;;4993571;28;20230;-74
2022/02/24 04:13:09;;;;;;;6.50;0.90;;;8.20;99.90;;;;;;4993916;28;20212;-74
2022/02/24 04:15:36;;;;;;;2.87;0.90;;;8.20;99.90;;;;;;4994127;28;20210;-74
2022/02/24 04:18:03;;;;;;;1.53;0.60;;;8.20;99.90;;;;;;4993422;28;20217;-74
2022/02/24 04:20:30;;;;;;;7.43;0.70;;;8.10;99.90;;;;;;4993221;28;20717;-74
2022/02/24 04:22:58;;;;;;;3.33;0.60;;;8.10;99.90;;;;;;4999304;28;20203;-74
2022/02/24 04:25:25;;;;;;;1.10;0.53;;;8.20;99.90;;;;;;5013137;28;20574;-75
2022/02/24 04:27:53;;;;;;;5.30;0.67;;;8.20;99.90;;;;;;5003452;28;20230;-74
2022/02/24 04:30:21;;;;;;;5.47;0.50;;;8.20;99.90;;;;;;4993352;28;20238;-74
2022/02/24 04:32:48;;;;;;;2.10;0.90;;;8.20;99.90;;;;;;4993132;28;20756;-75
2022/02/24 04:35:16;;;;;;;4.20;0.60;;;8.20;99.90;;;;;;4992462;28;20700;-75
2022/02/24 04:37:43;;;;;;;6.83;2.33;;;8.20;99.90;;;;;;4993759;28;20206;-74
2022/02/24 04:40:12;;;;;;;4.10;0.70;;;8.20;99.90;;;;;;5003806;28;20221;-75
2022/02/24 04:42:39;;;;;;;3.07;0.70;;;8.20;99.90;;;;;;5013033;28;20576;-75
2022/02/24 04:45:07;;;;;;;2.37;0.80;;;8.20;99.90;;;;;;5012893;28;20205;-74
2022/02/24 04:47:34;;;;;;;3.27;0.73;;;8.20;99.90;;;;;;5012954;28;20225;-74
2022/02/24 04:50:02;;;;;;;1.83;0.67;;;8.10;99.90;;;;;;5012806;28;20245;-75
2022/02/24 04:52:29;;;;;;;4.20;0.80;;;8.20;99.90;;;;;;5013246;28;20300;-75
2022/02/24 04:54:56;;;;;;;5.07;0.90;;;8.20;99.90;;;;;;5012811;28;20664;-75
2022/02/24 04:57:24;;;;;;;3.67;0.57;;;8.20;99.90;;;;;;5013068;28;20305;-75
2022/02/24 04:59:51;;;;;;;4.23;1.00;;;8.10;99.90;;;;;;4998843;28;20230;-74
2022/02/24 05:02:18;;;;;;;4.13;0.60;;;8.10;99.90;;;;;;4993136;28;20206;-74
2022/02/24 05:04:45;;;;;;;3.30;1.00;;;8.00;99.90;;;;;;4993382;28;20669;-75
2022/02/24 05:07:11;;;;;;;5.20;1.10;;;7.90;99.90;;;;;;4993304;28;20245;-75
2022/02/24 05:09:39;;;;;;;3.03;1.10;;;7.80;99.90;;;;;;4993193;28;20237;-74
2022/02/24 05:12:07;;;;;;;2.50;1.07;;;7.70;99.90;;;;;;4993377;28;20211;-75
2022/02/24 05:14:35;;;;;;;5.20;1.00;;;7.60;99.90;;;;;;4996589;28;20198;-75
2022/02/24 05:17:02;;;;;;;4.93;1.00;;;7.70;99.90;;;;;;5003124;28;20217;-75
2022/02/24 05:19:29;;;;;;;4.13;1.13;;;7.60;99.90;;;;;;5012672;28;20229;-75
2022/02/24 05:21:56;;;;;;;6.83;1.23;;;7.50;99.90;;;;;;4996039;28;20210;-77
2022/02/24 05:24:22;;;;;;;5.83;1.10;;;7.50;99.90;;;;;;4993031;28;20218;-75
2022/02/24 05:26:49;;;;;;;4.53;0.73;;;7.40;99.90;;;;;;4993083;28;20202;-77
2022/02/24 05:29:16;;;;;;;2.97;1.03;;;7.40;99.90;;;;;;4992734;28;20244;-74
2022/02/24 05:31:44;;;;;;;5.50;1.20;;;7.40;99.90;;;;;;4992775;28;20662;-75
2022/02/24 05:34:11;;;;;;;4.63;0.83;;;7.40;99.90;;;;;;4992770;28;20202;-78
2022/02/24 05:36:38;;;;;;;3.60;0.70;;;7.40;99.90;;;;;;4992562;28;20658;-74
2022/02/24 05:39:05;;;;;;;3.73;0.73;;;7.40;99.90;;;;;;4992751;28;20246;-75
2022/02/24 05:41:32;;;;;;;2.77;0.83;;;7.40;99.90;;;;;;4992911;28;20214;-75
2022/02/24 05:43:59;;;;;;;3.30;1.23;;;7.40;99.90;;;;;;4992521;28;20674;-75
2022/02/24 05:46:25;;;;;;;4.83;0.87;;;7.30;99.90;;;;;;4996513;28;20213;-74
2022/02/24 05:48:54;;;;;;;4.97;0.60;;;7.40;99.90;;;;;;4996130;28;20231;-75
2022/02/24 05:51:20;;;;;;;2.00;0.60;;;7.40;99.90;;;;;;4996370;28;20207;-74
2022/02/24 05:53:47;;;;;;;4.87;0.87;;;7.50;99.90;;;;;;4996260;28;20233;-74
2022/02/24 05:56:14;;;;;;;3.27;0.70;;;7.50;99.90;;;;;;4996082;28;20202;-75
2022/02/24 05:58:42;;;;;;;4.20;0.80;;;7.60;99.90;;;;;;4995937;28;20669;-75
2022/02/24 06:01:09;;;;;;;1.93;0.93;;;7.50;99.90;;;;;;4999217;28;20314;-74
2022/02/24 06:03:36;;;;;;;7.47;0.90;;;7.60;99.90;;;;;;5010047;28;20857;-74
2022/02/24 06:06:04;;;;;;;5.70;1.33;;;7.50;99.90;;;;;;5012883;28;20202;-74
2022/02/24 06:08:31;;;;;;;3.43;0.57;;;7.50;99.90;;;;;;4995285;28;20593;-74
2022/02/24 06:10:58;;;;;;;3.70;0.60;;;7.40;99.90;;;;;;4995573;28;20242;-74
2022/02/24 06:13:26;;;;;;;2.03;0.60;;;7.40;99.90;;;;;;4995331;28;20679;-75
2022/02/24 06:15:52;;;;;;;1.97;0.80;;;7.40;99.90;;;;;;4998494;28;20512;-74
2022/02/24 06:18:19;;;;;;;3.87;0.70;;;7.40;99.90;;;;;;5011125;28;20204;-75
2022/02/24 06:20:47;;;;;;;1.70;0.60;;;7.40;99.90;;;;;;5012306;28;20229;-74
2022/02/24 06:23:15;;;;;;;4.00;0.90;;;7.40;99.90;;;;;;5013251;28;20198;-74
2022/02/24 06:25:42;;;;;;;4.10;0.67;;;7.40;99.90;;;;;;5014058;28;20197;-75
2022/02/24 06:28:09;;;;;;;1.40;0.60;;;7.50;99.90;;;;;;5014187;28;20240;-74
2022/02/24 06:30:36;;;;;;;4.10;0.97;;;7.40;99.90;;;;;;5014526;28;20708;-74
2022/02/24 06:33:03;;;;;;;1.83;0.70;;;7.40;99.90;;;;;;5014282;28;20567;-74
2022/02/24 06:35:30;;;;;;;4.67;0.93;;;7.40;99.90;;;;;;5005804;28;20198;-74
2022/02/24 06:37:58;;;;;;;7.10;1.47;;;7.40;99.90;;;;;;4998188;28;20202;-74
2022/02/24 06:40:27;;;;;;;1.27;0.50;;;7.40;99.90;;;;;;5013870;28;20731;-74
2022/02/24 06:42:54;;;;;;;1.90;0.70;;;7.40;99.90;;;;;;5014120;28;20238;-74
2022/02/24 06:45:20;;;;;;;5.37;0.87;;;7.40;99.90;;;;;;5014478;28;20201;-75
2022/02/24 06:47:47;;;;;;;4.53;0.60;;;7.40;99.90;;;;;;5014946;28;20607;-75
2022/02/24 06:50:14;;;;;;;11.23;1.30;;;7.40;99.90;;;;;;5014210;28;20225;-75
2022/02/24 06:52:42;;;;;;;3.00;0.77;;;7.50;99.90;;;;;;4998526;28;20206;-75
2022/02/24 06:55:09;;;;;;;5.37;0.70;;;7.50;99.90;;;;;;4994497;28;20218;-76
2022/02/24 06:57:44;;;;;;;6.83;0.90;;;7.40;99.90;;;;;;4994145;28;20206;-76
2022/02/24 07:00:12;;;;;;;5.10;1.23;;;7.50;99.90;;;;;;4995240;28;20236;-75
2022/02/24 07:02:39;;;;;;;1.67;0.70;;;7.60;99.90;;;;;;4994137;28;20202;-76
2022/02/24 07:05:07;;;;;;;10.67;0.90;;;7.70;99.90;;;;;;5013195;28;20202;-75
2022/02/24 07:07:34;;;;;;;2.87;0.77;;;7.70;99.90;;;;;;5012260;28;20206;-74
2022/02/24 07:10:02;;;;;;;4.20;0.93;;;7.80;99.90;;;;;;5014119;28;20230;-75
2022/02/24 07:12:29;;;;;;;5.47;0.67;;;7.80;99.90;;;;;;5014456;28;20216;-74
2022/02/24 07:14:58;;;;;;;7.23;0.90;;;7.80;99.90;;;;;;5014640;28;20208;-74
2022/02/24 07:17:25;;;;;;;4.83;0.90;;;7.70;99.90;;;;;;5015326;28;20205;-74
2022/02/24 07:19:53;;;;;;;2.20;0.77;;;7.70;99.90;;;;;;5014073;28;20735;-74
2022/02/24 07:22:20;;;;;;;5.40;0.60;;;7.80;99.90;;;;;;5014787;28;20244;-74
2022/02/24 07:24:47;;;;;;;4.33;0.80;;;7.80;99.90;;;;;;5014372;28;20217;-74
2022/02/24 07:27:14;;;;;;;10.07;0.90;;;7.80;99.90;;;;;;5014140;28;20671;-74
2022/02/24 07:29:41;;;;;;;2.90;0.77;;;7.80;99.90;;;;;;5013905;28;20242;-74
2022/02/24 07:32:10;;;;;;;3.47;1.50;;;7.90;99.90;;;;;;5013897;28;20216;-74
2022/02/24 07:34:37;;;;;;;5.60;0.80;;;8.00;99.90;;;;;;5014414;28;20216;-75
2022/02/24 07:37:04;;;;;;;5.43;0.83;;;8.20;99.90;;;;;;5014145;28;20206;-74
2022/02/24 07:39:31;;;;;;;7.40;0.70;;;8.20;99.90;;;;;;5013887;28;20230;-75
2022/02/24 07:41:58;;;;;;;7.77;1.07;;;8.40;99.90;;;;;;5014203;28;20205;-75
2022/02/24 07:44:25;;;;;;;1.73;0.60;;;8.50;99.90;;;;;;5013906;28;20209;-75
2022/02/24 07:46:51;;;;;;;4.30;0.60;;;8.70;99.90;;;;;;5013926;28;20229;-74
2022/02/24 07:49:22;;;;;;;6.60;0.70;;;8.80;99.90;;;;;;5013634;28;20263;-75
2022/02/24 07:51:51;;;;;;;2.97;0.70;;;8.90;99.90;;;;;;5013671;28;20206;-75
2022/02/24 07:54:18;;;;;;;2.87;0.67;;;9.00;99.90;;;;;;5013694;28;20213;-75
2022/02/24 07:56:45;;;;;;;4.53;1.00;;;9.10;99.90;;;;;;5013534;28;20661;-75
2022/02/24 07:59:13;;;;;;;1.80;0.40;;;9.20;99.90;;;;;;5013455;28;20292;-75
2022/02/24 08:01:40;;;;;;;4.83;0.70;;;9.10;99.90;;;;;;5013577;28;20292;-75
2022/02/24 08:04:07;;;;;;;2.50;0.80;;;9.00;99.90;;;;;;5013429;28;20542;-75
2022/02/24 08:06:35;;;;;;;9.40;1.07;;;9.00;99.90;;;;;;5013565;28;20542;-74
2022/02/24 08:09:02;;;;;;;3.53;0.60;;;9.00;99.90;;;;;;5013163;28;20612;-74
2022/02/24 08:11:29;;;;;;;3.23;0.60;;;8.90;99.90;;;;;;5013107;28;20205;-75
2022/02/24 08:13:56;;;;;;;5.90;0.77;;;8.80;99.90;;;;;;5013420;28;20201;-74
2022/02/24 08:16:22;;;;;;;5.63;0.70;;;8.80;99.90;;;;;;5013898;28;20212;-75
2022/02/24 08:18:49;;;;;;;2.50;0.80;;;8.90;99.90;;;;;;5013433;28;20681;-75
2022/02/24 08:21:16;;;;;;;6.97;1.10;;;8.90;99.90;;;;;;5014168;28;20212;-76
2022/02/24 08:23:45;;;;;;;10.10;0.70;;;8.80;99.90;;;;;;5013314;28;20206;-75
2022/02/24 08:26:11;;;;;;;5.10;0.70;;;8.80;99.90;;;;;;5013404;28;20206;-74
2022/02/24 08:28:38;;;;;;;5.17;0.73;;;8.80;99.90;;;;;;5013300;28;20604;-75
2022/02/24 08:31:05;;;;;;;4.47;0.73;;;9.00;99.90;;;;;;5013604;28;20232;-74
2022/02/24 08:33:32;;;;;;;1.93;0.77;;;9.10;99.90;;;;;;5013237;28;20271;-75
2022/02/24 08:35:59;;;;;;;1.43;0.60;;;9.20;99.90;;;;;;5013549;28;20221;-75
2022/02/24 08:38:26;;;;;;;3.70;0.50;;;9.30;99.90;;;;;;5013282;28;20568;-74
2022/02/24 08:40:54;;;;;;;1.67;0.50;;;9.40;99.90;;;;;;5013293;28;20225;-74
2022/02/24 08:43:22;;;;;;;4.70;0.70;;;9.40;99.90;;;;;;5013225;28;20669;-75
2022/02/24 08:45:49;;;;;;;4.13;1.03;;;9.20;99.90;;;;;;5013464;28;20233;-74
2022/02/24 08:48:16;;;;;;;3.87;0.60;;;9.20;99.90;;;;;;5013185;28;20208;-75
2022/02/24 08:50:43;;;;;;;3.27;0.40;;;9.20;99.90;;;;;;5013123;28;20336;-75
2022/02/24 08:53:10;;;;;;;4.43;0.60;;;9.10;99.90;;;;;;5008024;28;20217;-78
2022/02/24 08:55:38;;;;;;;2.57;0.60;;;9.20;99.90;;;;;;5012420;28;20202;-72
2022/02/24 08:58:07;;;;;;;5.63;0.40;;;9.20;99.90;;;;;;5013020;28;20210;-70
2022/02/24 09:00:34;;;;;;;2.60;0.60;;;9.20;99.90;;;;;;5012897;28;20226;-72
2022/02/24 09:03:01;;;;;;;2.43;0.60;;;9.20;99.90;;;;;;5012924;28;20300;-72
2022/02/24 09:05:27;;;;;;;3.37;0.50;;;9.20;99.90;;;;;;5012685;28;20292;-71
2022/02/24 09:07:54;;;;;;;2.00;0.50;;;9.20;99.90;;;;;;5012496;28;20208;-76
2022/02/24 09:10:21;;;;;;;1.87;0.83;;;9.10;99.90;;;;;;5012454;28;20601;-71
2022/02/24 09:12:48;;;;;;;1.03;0.47;;;9.20;99.90;;;;;;5007717;28;20206;-72
2022/02/24 09:15:16;;;;;;;6.63;0.70;;;9.20;99.90;;;;;;5011473;28;20256;-72
2022/02/24 09:17:43;;;;;;;3.93;0.60;;;9.10;99.90;;;;;;5011393;28;20217;-75
2022/02/24 09:20:11;;;;;;;1.57;0.57;;;9.10;99.90;;;;;;5011048;28;20230;-69
2022/02/24 09:22:38;;;;;;;5.07;0.63;;;9.10;99.90;;;;;;5014663;28;20208;-78
2022/02/24 09:25:06;;;;;;;3.03;0.53;;;9.10;99.90;;;;;;5015300;28;20209;-74
2022/02/24 09:27:35;;;;;;;6.07;1.00;;;9.20;99.90;;;;;;5014795;28;20237;-71
2022/02/24 09:30:02;;;;;;;8.63;0.67;;;9.30;99.90;;;;;;5015193;28;20269;-72
2022/02/24 09:32:31;;;;;;;2.13;0.70;;;9.40;99.90;;;;;;5014595;28;20202;-69
2022/02/24 09:34:59;;;;;;;2.10;0.50;;;9.50;99.90;;;;;;5014430;28;20210;-71
2022/02/24 09:37:26;;;;;;;3.27;0.70;;;9.40;99.90;;;;;;5014664;28;20308;-70
2022/02/24 09:39:52;;;;;;;2.23;0.53;;;9.50;99.90;;;;;;5014585;28;20226;-69
2022/02/24 09:42:20;;;;;;;2.37;0.50;;;9.50;99.90;;;;;;5014002;28;20202;-71
2022/02/24 09:44:47;;;;;;;1.73;0.63;;;9.60;99.90;;;;;;5014810;28;20236;-70
2022/02/24 09:47:15;;;;;;;4.63;0.87;;;9.60;99.90;;;;;;5014810;28;20225;-68
2022/02/24 09:49:45;;;;;;;4.73;0.70;;;9.40;99.90;;;;;;5014016;28;20681;-69
2022/02/24 09:52:11;;;;;;;2.60;0.70;;;9.20;99.90;;;;;;5013774;28;20207;-70
2022/02/24 09:54:38;;;;;;;7.10;1.13;;;9.10;99.90;;;;;;5014418;28;20212;-76
2022/02/24 09:57:05;;;;;;;2.10;0.63;;;9.20;99.90;;;;;;5014073;28;20202;-74
2022/02/24 09:59:32;;;;;;;4.40;0.60;;;9.20;99.90;;;;;;5014294;28;20244;-69
2022/02/24 10:02:00;;;;;;;7.00;0.77;;;9.30;99.90;;;;;;5014038;28;20201;-69
2022/02/24 10:04:27;;;;;;;3.47;0.77;;;9.30;99.90;;;;;;5013716;28;20209;-69
2022/02/24 10:06:55;;;;;;;1.37;0.50;;;9.30;99.90;;;;;;5014644;28;20201;-71
2022/02/24 10:09:31;;;;;;;4.20;0.63;;;9.20;99.90;;;;;;5013804;28;20260;-70
2022/02/24 10:12:06;;;;;;;2.47;0.60;;;9.10;99.90;;;;;;5013575;28;20212;-73
2022/02/24 10:14:34;;;;;;;5.80;0.70;;;9.00;99.90;;;;;;5014327;28;20227;-72
2022/02/24 10:17:04;;;;;;;6.20;1.00;;;9.20;99.90;;;;;;5014085;28;20202;-72
2022/02/24 10:19:35;;;;;;;1.97;0.70;;;9.30;99.90;;;;;;5013797;28;20348;-74
2022/02/24 10:22:11;;;;;;;4.70;0.90;;;9.50;99.90;;;;;;5013621;28;20194;-73
2022/02/24 10:24:38;;;;;;;3.13;0.77;;;9.60;99.90;;;;;;5013523;28;20212;-72
2022/02/24 10:27:19;;;;;;;4.63;0.80;;;9.80;99.90;;;;;;5013795;28;20206;-73
2022/02/24 10:30:03;;;;;;;2.50;0.57;;;9.90;99.90;;;;;;5013707;28;20242;-71
2022/02/24 10:32:33;;;;;;;4.10;0.63;;;9.90;99.90;;;;;;5011161;28;20205;-72
2022/02/24 10:35:28;;;;;;;2.33;0.70;;;9.90;99.90;;;;;;5013828;28;20206;-74
2022/02/24 10:38:02;;;;;;;1.93;0.70;;;10.00;99.90;;;;;;5013920;28;20212;-74
2022/02/24 10:40:31;;;;;;;8.60;1.07;;;10.00;99.90;;;;;;5012895;28;20601;-73
2022/02/24 10:43:16;;;;;;;2.33;0.50;;;10.30;99.90;;;;;;5013373;28;20198;-71
2022/02/24 10:45:45;;;;;;;5.23;0.80;;;10.40;99.90;;;;;;5013711;28;20217;-76
2022/02/24 10:48:12;;;;;;;2.67;0.47;;;10.40;99.90;;;;;;5012695;28;20664;-78
2022/02/24 10:50:55;;;;;;;3.33;0.40;;;10.40;99.90;;;;;;5013739;28;20233;-76
2022/02/24 10:53:28;;;;;;;3.10;0.80;;;10.50;99.90;;;;;;5013638;28;20217;-71
2022/02/24 10:56:01;;;;;;;3.87;0.80;;;10.50;99.90;;;;;;5012956;28;20206;-72
2022/02/24 10:58:30;;;;;;;6.30;1.03;;;10.50;99.90;;;;;;5013288;28;20213;-72
2022/02/24 11:01:05;;;;;;;1.77;0.57;;;10.70;99.90;;;;;;5013198;28;20320;-71
2022/02/24 11:03:32;;;;;;;3.93;0.93;;;10.70;99.90;;;;;;5012638;28;20208;-71
2022/02/24 11:06:00;;;;;;;5.33;0.80;;;10.70;99.90;;;;;;5012926;28;20216;-70
2022/02/24 11:08:29;;;;;;;3.90;0.60;;;10.70;99.90;;;;;;5007614;28;20292;-71
2022/02/24 11:10:59;;;;;;;3.27;0.50;;;10.80;99.90;;;;;;5012576;28;20733;-72
2022/02/24 11:13:27;;;;;;;4.37;0.70;;;11.00;99.90;;;;;;5013373;28;20212;-74
2022/02/24 11:15:54;;;;;;;4.10;0.50;;;11.00;99.90;;;;;;5013421;28;20216;-75
2022/02/24 11:18:23;;;;;;;0.50;0.30;;;10.90;99.90;;;;;;5012926;28;20201;-72
2022/02/24 11:20:50;;;;;;;1.93;0.50;;;11.00;99.90;;;;;;5013074;28;20328;-71
2022/02/24 11:23:17;;;;;;;2.80;0.30;;;11.20;99.90;;;;;;5012814;28;20210;-71
2022/02/24 11:25:55;;;;;;;0.83;0.40;;;11.30;99.90;;;;;;5012539;28;20612;-72
2022/02/24 11:28:24;;;;;;;3.30;0.50;;;11.20;99.90;;;;;;5013344;28;20213;-72
2022/02/24 11:30:57;;;;;;;2.87;0.43;;;11.30;99.90;;;;;;5012260;28;20245;-72
2022/02/24 11:33:24;;;;;;;4.00;0.67;;;11.40;99.90;;;;;;5012560;28;20700;-71
2022/02/24 11:36:07;;;;;;;2.20;0.40;;;11.30;99.90;;;;;;5012463;28;20206;-72
2022/02/24 11:38:35;;;;;;;1.33;0.67;;;11.30;99.90;;;;;;5012411;28;20206;-71
2022/02/24 11:41:06;;;;;;;1.57;0.43;;;11.30;99.90;;;;;;5011721;28;20581;-71
2022/02/24 11:43:34;;;;;;;5.00;0.60;;;11.50;99.90;;;;;;5012541;28;20223;-71
2022/02/24 11:46:05;;;;;;;2.03;0.63;;;11.60;99.90;;;;;;5012408;28;20304;-72
2022/02/24 11:48:34;;;;;;;2.20;0.40;;;12.00;99.90;;;;;;5012660;28;20221;-72
2022/02/24 11:51:02;;;;;;;1.67;0.50;;;12.10;99.90;;;;;;5012284;28;20233;-72
2022/02/24 11:53:38;;;;;;;2.90;0.50;;;12.00;99.90;;;;;;5011881;28;20206;-70
2022/02/24 11:56:17;;;;;;;3.40;0.70;;;11.80;99.90;;;;;;5012315;28;20217;-72
2022/02/24 11:58:53;;;;;;;3.10;0.40;;;11.80;99.90;;;;;;5012058;28;20214;-71
2022/02/24 12:01:33;;;;;;;1.43;0.50;;;11.90;99.90;;;;;;5011301;28;20228;-70
2022/02/24 12:04:15;;;;;;;0.83;0.50;;;12.00;99.90;;;;;;5012611;28;20267;-71
2022/02/24 12:06:46;;;;;;;3.30;0.50;;;12.20;99.90;;;;;;5012281;28;20662;-72
2022/02/24 12:09:18;;;;;;;0.80;0.60;;;12.20;99.90;;;;;;5013042;28;20221;-71
2022/02/24 12:11:48;;;;;;;1.07;0.30;;;12.10;99.90;;;;;;5013766;28;20209;-71
2022/02/24 12:14:42;;;;;;;0.60;0.30;;;12.20;99.90;;;;;;5013685;28;20229;-71
2022/02/24 12:17:10;;;;;;;1.37;0.40;;;12.30;99.90;;;;;;5013472;28;20683;-71
2022/02/24 12:19:40;;;;;;;4.03;0.67;;;12.20;99.90;;;;;;5013154;28;20233;-71
2022/02/24 12:22:27;;;;;;;3.80;0.53;;;12.20;99.90;;;;;;5013363;28;20217;-71
2022/02/24 12:24:56;;;;;;;1.60;0.40;;;12.00;99.90;;;;;;5013113;28;20202;-71
2022/02/24 12:27:28;;;;;;;0.70;0.23;;;12.00;99.90;;;;;;5013275;28;20205;-71
2022/02/24 12:29:57;;;;;;;1.67;0.33;;;11.80;99.90;;;;;;5012985;28;20287;-71
2022/02/24 12:32:37;;;;;;;2.43;0.40;;;11.70;99.90;;;;;;5012901;28;20573;-71
2022/02/24 12:35:05;;;;;;;1.53;0.43;;;11.80;99.90;;;;;;5013141;28;20255;-71
2022/02/24 12:37:33;;;;;;;2.20;0.50;;;11.60;99.90;;;;;;5013369;28;20201;-70
2022/02/24 12:40:01;;;;;;;3.13;0.40;;;11.40;99.90;;;;;;5012870;28;20234;-70
2022/02/24 12:42:30;;;;;;;2.53;0.60;;;11.10;99.90;;;;;;5013259;28;20205;-70
2022/02/24 12:44:57;;;;;;;0.80;0.53;;;11.00;99.90;;;;;;5013070;28;20210;-70
2022/02/24 12:47:25;;;;;;;0.73;0.37;;;11.00;99.90;;;;;;5012881;28;20260;-70
2022/02/24 12:49:54;;;;;;;2.10;0.27;;;10.90;99.90;;;;;;5009430;28;20233;-69
2022/02/24 12:52:23;;;;;;;0.97;0.47;;;10.90;99.90;;;;;;5011797;28;20240;-70
2022/02/24 12:54:50;;;;;;;3.70;0.40;;;11.00;99.90;;;;;;5011890;28;20224;-70
2022/02/24 12:57:18;;;;;;;2.10;0.47;;;11.00;99.90;;;;;;5014039;28;20284;-69
2022/02/24 12:59:46;;;;;;;2.60;0.50;;;11.00;99.90;;;;;;5015293;28;20260;-72